Wetterdaten: Woche 25.06.12 - 01.07.12 (KW26)
Datum Zeit Temperatur Luftfeuchte Luftdruck Niederschlag Windrichtung Sonnenschein Solar Wind
25.06.2012 00:00 17,7 C 60 % 1014,2 hPa 0,0 l/m W-SW 0,00 h 0 W/m 10,6 km/h (2 Bft)
25.06.2012 01:00 16,8 C 73 % 1013,8 hPa 0,2 l/m SW 0,00 h 0 W/m 15,7 km/h (3 Bft)
25.06.2012 02:00 14,6 C 93 % 1013,2 hPa 1,4 l/m SW 0,00 h 0 W/m 18,4 km/h (3 Bft)
25.06.2012 03:00 14,4 C 95 % 1012,5 hPa 1,8 l/m W-SW 0,00 h 0 W/m 21,0 km/h (4 Bft)
25.06.2012 04:00 14,6 C 96 % 1012,1 hPa 0,8 l/m SW 0,00 h 0 W/m 18,6 km/h (3 Bft)
25.06.2012 05:00 14,5 C 96 % 1012,5 hPa 1,8 l/m W-SW 0,00 h 0 W/m 20,9 km/h (4 Bft)
25.06.2012 06:00 13,0 C 96 % 1013,2 hPa 1,4 l/m N 0,00 h 12 W/m 4,5 km/h (1 Bft)
25.06.2012 07:00 12,8 C 97 % 1013,7 hPa 1,6 l/m N 0,00 h 24 W/m 2,8 km/h (1 Bft)
25.06.2012 08:00 12,8 C 97 % 1014,2 hPa 1,8 l/m N 0,00 h 45 W/m 2,4 km/h (1 Bft)
25.06.2012 09:00 13,1 C 97 % 1014,7 hPa 1,0 l/m N 0,00 h 81 W/m 4,8 km/h (1 Bft)
25.06.2012 10:00 13,5 C 96 % 1014,9 hPa 0,4 l/m N-NO 0,08 h 250 W/m 9,3 km/h (2 Bft)
25.06.2012 11:00 14,7 C 92 % 1015,2 hPa 0,0 l/m N-NO 0,00 h 302 W/m 6,8 km/h (2 Bft)
25.06.2012 12:00 16,3 C 82 % 1015,3 hPa 0,0 l/m W-NW 0,08 h 332 W/m 12,6 km/h (3 Bft)
25.06.2012 13:00 16,5 C 72 % 1015,5 hPa 0,0 l/m W-NW 0,00 h 338 W/m 14,1 km/h (3 Bft)
25.06.2012 14:00 18,6 C 61 % 1015,1 hPa 0,0 l/m W-NW 1,00 h 972 W/m 18,6 km/h (3 Bft)
25.06.2012 15:00 20,2 C 52 % 1014,9 hPa 0,0 l/m W-NW 1,00 h 894 W/m 18,0 km/h (3 Bft)
25.06.2012 16:00 20,8 C 49 % 1015,1 hPa 0,0 l/m W-NW 1,00 h 778 W/m 18,1 km/h (3 Bft)
25.06.2012 17:00 20,6 C 47 % 1015,3 hPa 0,0 l/m W-NW 1,00 h 613 W/m 20,2 km/h (4 Bft)
25.06.2012 18:00 20,2 C 48 % 1015,4 hPa 0,0 l/m N 1,00 h 446 W/m 19,0 km/h (3 Bft)
25.06.2012 19:00 18,9 C 50 % 1016,0 hPa 0,0 l/m NW 0,58 h 169 W/m 15,6 km/h (3 Bft)
25.06.2012 20:00 17,1 C 58 % 1016,6 hPa 0,0 l/m N-NW 0,08 h 47 W/m 8,2 km/h (2 Bft)
25.06.2012 21:00 15,7 C 63 % 1017,2 hPa 0,0 l/m N-NW 0,00 h 9 W/m 6,0 km/h (2 Bft)
25.06.2012 22:00 14,0 C 73 % 1018,2 hPa 0,0 l/m N-NW 0,00 h 0 W/m 3,5 km/h (1 Bft)
25.06.2012 23:00 13,6 C 74 % 1018,8 hPa 0,0 l/m N-NW 0,00 h 0 W/m 3,6 km/h (1 Bft)
26.06.2012 00:00 12,3 C 81 % 1019,1 hPa 0,0 l/m N 0,00 h 0 W/m 1,3 km/h (1 Bft)
26.06.2012 01:00 10,8 C 87 % 1019,3 hPa 0,0 l/m N 0,00 h 0 W/m 0,0 km/h (0 Bft)
26.06.2012 02:00 10,4 C 90 % 1019,2 hPa 0,0 l/m N 0,00 h 0 W/m 0,0 km/h (0 Bft)
26.06.2012 03:00 10,2 C 91 % 1019,1 hPa 0,0 l/m N 0,00 h 0 W/m 0,0 km/h (0 Bft)
26.06.2012 04:00 9,2 C 93 % 1019,2 hPa 0,0 l/m N 0,00 h 0 W/m 0,0 km/h (0 Bft)
26.06.2012 05:00 8,7 C 94 % 1019,4 hPa 0,0 l/m N 0,00 h 6 W/m 0,0 km/h (0 Bft)
26.06.2012 06:00 9,2 C 94 % 1019,7 hPa 0,0 l/m N 0,17 h 74 W/m 0,3 km/h (0 Bft)
26.06.2012 07:00 11,8 C 87 % 1020,1 hPa 0,0 l/m N 0,58 h 186 W/m 0,5 km/h (0 Bft)
26.06.2012 08:00 14,2 C 80 % 1020,4 hPa 0,0 l/m O-SO 0,75 h 386 W/m 2,4 km/h (1 Bft)
26.06.2012 09:00 16,3 C 70 % 1020,3 hPa 0,0 l/m SW 0,42 h 337 W/m 9,1 km/h (2 Bft)
26.06.2012 10:00 17,1 C 67 % 1020,4 hPa 0,0 l/m W-SW 0,50 h 393 W/m 11,2 km/h (2 Bft)
26.06.2012 11:00 18,0 C 62 % 1020,4 hPa 0,0 l/m W-SW 0,58 h 581 W/m 13,6 km/h (3 Bft)
26.06.2012 12:00 19,3 C 56 % 1020,1 hPa 0,0 l/m W 0,67 h 715 W/m 15,2 km/h (3 Bft)
26.06.2012 13:00 19,8 C 57 % 1020,0 hPa 0,0 l/m SW 0,50 h 571 W/m 14,8 km/h (3 Bft)
26.06.2012 14:00 20,2 C 56 % 1019,8 hPa 0,0 l/m SW 0,42 h 580 W/m 13,4 km/h (3 Bft)
26.06.2012 15:00 21,5 C 53 % 1019,7 hPa 0,0 l/m SW 0,67 h 666 W/m 14,2 km/h (3 Bft)
26.06.2012 16:00 22,2 C 53 % 1019,5 hPa 0,0 l/m SW 0,92 h 763 W/m 18,2 km/h (3 Bft)
26.06.2012 17:00 21,7 C 56 % 1019,4 hPa 0,0 l/m W-SW 0,50 h 454 W/m 15,4 km/h (3 Bft)
26.06.2012 18:00 20,9 C 59 % 1019,5 hPa 0,0 l/m W 0,58 h 289 W/m 12,8 km/h (3 Bft)
26.06.2012 19:00 20,6 C 63 % 1019,6 hPa 0,0 l/m W-SW 1,00 h 259 W/m 8,4 km/h (2 Bft)
26.06.2012 20:00 19,3 C 71 % 1019,7 hPa 0,0 l/m W-SW 0,33 h 61 W/m 8,2 km/h (2 Bft)
26.06.2012 21:00 18,2 C 77 % 1019,9 hPa 0,0 l/m W-SW 0,00 h 8 W/m 7,1 km/h (2 Bft)
26.06.2012 22:00 17,8 C 80 % 1020,1 hPa 0,0 l/m W-SW 0,00 h 0 W/m 7,3 km/h (2 Bft)
26.06.2012 23:00 17,3 C 83 % 1020,2 hPa 0,0 l/m N 0,00 h 0 W/m 2,0 km/h (1 Bft)
27.06.2012 00:00 16,4 C 85 % 1020,4 hPa 0,0 l/m N 0,00 h 0 W/m 0,8 km/h (0 Bft)
27.06.2012 01:00 16,2 C 84 % 1020,3 hPa 0,0 l/m N 0,00 h 0 W/m 0,1 km/h (0 Bft)
27.06.2012 02:00 15,9 C 84 % 1020,4 hPa 0,0 l/m N 0,00 h 0 W/m 0,0 km/h (0 Bft)
27.06.2012 03:00 15,5 C 87 % 1020,1 hPa 0,0 l/m N 0,00 h 0 W/m 0,0 km/h (0 Bft)
27.06.2012 04:00 15,3 C 90 % 1019,9 hPa 0,0 l/m N 0,00 h 0 W/m 0,0 km/h (0 Bft)
27.06.2012 05:00 15,1 C 93 % 1019,7 hPa 0,0 l/m N 0,00 h 8 W/m 0,3 km/h (0 Bft)
27.06.2012 06:00 15,4 C 94 % 1019,7 hPa 0,0 l/m N 0,00 h 20 W/m 0,3 km/h (0 Bft)
27.06.2012 07:00 16,2 C 94 % 1019,7 hPa 0,0 l/m W-SW 0,00 h 62 W/m 3,7 km/h (1 Bft)
27.06.2012 08:00 17,3 C 92 % 1019,9 hPa 0,0 l/m W-SW 0,17 h 179 W/m 8,7 km/h (2 Bft)
27.06.2012 09:00 18,9 C 85 % 1019,5 hPa 0,0 l/m S-SW 0,00 h 204 W/m 10,4 km/h (2 Bft)
27.06.2012 10:00 19,3 C 83 % 1019,2 hPa 0,0 l/m SW 0,00 h 183 W/m 11,7 km/h (2 Bft)
27.06.2012 11:00 19,8 C 82 % 1018,8 hPa 0,0 l/m SW 0,25 h 413 W/m 10,9 km/h (2 Bft)
27.06.2012 12:00 22,4 C 71 % 1018,4 hPa 0,0 l/m SW 0,92 h 865 W/m 14,5 km/h (3 Bft)
27.06.2012 13:00 23,4 C 63 % 1017,7 hPa 0,0 l/m W-SW 0,67 h 732 W/m 15,0 km/h (3 Bft)
27.06.2012 14:00 24,5 C 61 % 1017,0 hPa 0,0 l/m SW 0,67 h 705 W/m 17,8 km/h (3 Bft)
27.06.2012 15:00 25,4 C 57 % 1016,3 hPa 0,0 l/m SW 0,92 h 819 W/m 16,8 km/h (3 Bft)
27.06.2012 16:00 24,7 C 58 % 1015,8 hPa 0,0 l/m SW 0,25 h 288 W/m 11,2 km/h (2 Bft)
27.06.2012 17:00 23,5 C 64 % 1015,4 hPa 0,0 l/m W-SW 0,08 h 154 W/m 3,1 km/h (1 Bft)
27.06.2012 18:00 23,9 C 63 % 1015,0 hPa 0,0 l/m W-NW 0,17 h 188 W/m 7,0 km/h (2 Bft)
27.06.2012 19:00 23,2 C 68 % 1014,9 hPa 0,0 l/m N 0,25 h 140 W/m 2,3 km/h (1 Bft)
27.06.2012 20:00 21,7 C 79 % 1014,7 hPa 0,0 l/m W-NW 0,00 h 31 W/m 2,4 km/h (1 Bft)
27.06.2012 21:00 20,7 C 75 % 1014,9 hPa 0,0 l/m N-NO 0,00 h 9 W/m 5,4 km/h (1 Bft)
27.06.2012 22:00 18,5 C 84 % 1014,9 hPa 0,0 l/m N 0,00 h 0 W/m 0,9 km/h (0 Bft)
27.06.2012 23:00 17,2 C 89 % 1014,8 hPa 0,0 l/m N 0,00 h 0 W/m 1,6 km/h (1 Bft)
28.06.2012 00:00 16,3 C 91 % 1014,5 hPa 0,0 l/m N 0,00 h 0 W/m 0,0 km/h (0 Bft)
28.06.2012 01:00 15,8 C 94 % 1014,3 hPa 0,0 l/m N 0,00 h 0 W/m 0,5 km/h (0 Bft)
28.06.2012 02:00 15,2 C 94 % 1013,6 hPa 0,0 l/m N 0,00 h 0 W/m 0,1 km/h (0 Bft)
28.06.2012 03:00 15,0 C 95 % 1013,3 hPa 0,0 l/m N 0,00 h 0 W/m 2,7 km/h (1 Bft)
28.06.2012 04:00 14,6 C 96 % 1012,8 hPa 0,0 l/m N 0,00 h 0 W/m 0,3 km/h (0 Bft)
28.06.2012 05:00 14,2 C 96 % 1012,5 hPa 0,0 l/m N 0,00 h 12 W/m 1,6 km/h (1 Bft)
28.06.2012 06:00 14,7 C 96 % 1012,6 hPa 0,0 l/m N-NO 0,00 h 46 W/m 6,0 km/h (2 Bft)
28.06.2012 07:00 16,2 C 91 % 1012,4 hPa 0,0 l/m N 0,75 h 190 W/m 4,0 km/h (1 Bft)
28.06.2012 08:00 19,1 C 82 % 1012,3 hPa 0,0 l/m N 1,00 h 350 W/m 4,9 km/h (1 Bft)
28.06.2012 09:00 21,5 C 75 % 1012,1 hPa 0,0 l/m O-SO 0,92 h 487 W/m 8,2 km/h (2 Bft)
28.06.2012 10:00 23,4 C 68 % 1011,5 hPa 0,0 l/m S-SO 0,58 h 522 W/m 8,2 km/h (2 Bft)
28.06.2012 11:00 24,3 C 64 % 1011,0 hPa 0,0 l/m S-SO 0,58 h 607 W/m 6,8 km/h (2 Bft)
28.06.2012 12:00 25,9 C 58 % 1010,4 hPa 0,0 l/m O-SO 1,00 h 814 W/m 8,4 km/h (2 Bft)
28.06.2012 13:00 27,2 C 55 % 1009,8 hPa 0,0 l/m S-SO 1,00 h 811 W/m 9,1 km/h (2 Bft)
28.06.2012 14:00 27,7 C 53 % 1009,3 hPa 0,0 l/m SW 0,83 h 616 W/m 9,1 km/h (2 Bft)
28.06.2012 15:00 28,4 C 49 % 1009,0 hPa 0,0 l/m SW 1,00 h 684 W/m 9,4 km/h (2 Bft)
28.06.2012 16:00 28,1 C 51 % 1008,5 hPa 0,0 l/m SW 0,50 h 420 W/m 7,2 km/h (2 Bft)
28.06.2012 17:00 27,3 C 56 % 1008,2 hPa 0,0 l/m SW 0,00 h 189 W/m 3,2 km/h (1 Bft)
28.06.2012 18:00 26,1 C 63 % 1008,1 hPa 0,0 l/m W-SW 0,00 h 90 W/m 7,6 km/h (2 Bft)
28.06.2012 19:00 25,3 C 65 % 1008,0 hPa 0,0 l/m W-SW 0,25 h 116 W/m 7,6 km/h (2 Bft)
28.06.2012 20:00 24,6 C 70 % 1007,8 hPa 0,0 l/m SW 0,17 h 53 W/m 6,7 km/h (2 Bft)
28.06.2012 21:00 22,6 C 73 % 1007,7 hPa 0,0 l/m W-SW 0,25 h 13 W/m 6,5 km/h (2 Bft)
28.06.2012 22:00 22,5 C 70 % 1008,3 hPa 0,0 l/m W-SW 0,00 h 0 W/m 9,1 km/h (2 Bft)
28.06.2012 23:00 20,6 C 80 % 1008,3 hPa 0,0 l/m N 0,00 h 0 W/m 0,3 km/h (0 Bft)
29.06.2012 00:00 19,1 C 88 % 1008,3 hPa 0,0 l/m N 0,00 h 0 W/m 0,3 km/h (0 Bft)
29.06.2012 01:00 18,3 C 91 % 1008,5 hPa 0,0 l/m N 0,00 h 0 W/m 0,1 km/h (0 Bft)
29.06.2012 02:00 18,0 C 93 % 1008,5 hPa 0,0 l/m N 0,00 h 0 W/m 1,1 km/h (0 Bft)
29.06.2012 03:00 18,2 C 92 % 1008,4 hPa 0,0 l/m N 0,00 h 0 W/m 0,9 km/h (0 Bft)
29.06.2012 04:00 18,9 C 85 % 1008,6 hPa 0,0 l/m NW 0,00 h 0 W/m 5,5 km/h (1 Bft)
29.06.2012 05:00 19,3 C 81 % 1009,3 hPa 0,0 l/m N-NW 0,00 h 5 W/m 14,3 km/h (3 Bft)
29.06.2012 06:00 18,4 C 88 % 1010,4 hPa 0,0 l/m SW 0,00 h 15 W/m 6,7 km/h (2 Bft)
29.06.2012 07:00 18,6 C 90 % 1010,5 hPa 0,0 l/m S-SW 0,00 h 90 W/m 5,2 km/h (1 Bft)
29.06.2012 08:00 20,0 C 87 % 1010,0 hPa 0,0 l/m S-SW 0,42 h 238 W/m 11,9 km/h (2 Bft)
29.06.2012 09:00 21,3 C 83 % 1009,7 hPa 0,2 l/m SW 0,17 h 151 W/m 11,1 km/h (2 Bft)
29.06.2012 10:00 23,0 C 82 % 1009,3 hPa 0,0 l/m S-SW 0,75 h 618 W/m 7,0 km/h (2 Bft)
29.06.2012 11:00 25,5 C 69 % 1009,0 hPa 0,0 l/m S-SW 0,83 h 692 W/m 4,3 km/h (1 Bft)
29.06.2012 12:00 28,0 C 58 % 1008,2 hPa 0,0 l/m S 1,00 h 853 W/m 8,2 km/h (2 Bft)
29.06.2012 13:00 29,8 C 44 % 1007,7 hPa 0,0 l/m SO 1,00 h 874 W/m 11,7 km/h (2 Bft)
29.06.2012 14:00 31,1 C 44 % 1007,2 hPa 0,0 l/m O-SO 1,00 h 849 W/m 12,2 km/h (2 Bft)
29.06.2012 15:00 32,0 C 40 % 1007,1 hPa 0,0 l/m SO 1,00 h 786 W/m 11,7 km/h (2 Bft)
29.06.2012 16:00 32,1 C 39 % 1007,0 hPa 0,0 l/m SW 1,00 h 694 W/m 10,6 km/h (2 Bft)
29.06.2012 17:00 31,7 C 42 % 1006,7 hPa 0,0 l/m W-SW 1,00 h 545 W/m 9,1 km/h (2 Bft)
29.06.2012 18:00 31,1 C 44 % 1006,4 hPa 0,0 l/m W-SW 1,00 h 377 W/m 6,8 km/h (2 Bft)
29.06.2012 19:00 29,3 C 51 % 1006,5 hPa 0,0 l/m W 1,00 h 204 W/m 5,1 km/h (1 Bft)
29.06.2012 20:00 26,4 C 67 % 1006,8 hPa 0,0 l/m N 0,00 h 48 W/m 1,1 km/h (0 Bft)
29.06.2012 21:00 24,1 C 71 % 1007,3 hPa 0,0 l/m N 0,00 h 8 W/m 0,4 km/h (0 Bft)
29.06.2012 22:00 23,4 C 71 % 1007,9 hPa 0,0 l/m W 0,00 h 0 W/m 4,3 km/h (1 Bft)
29.06.2012 23:00 23,5 C 72 % 1008,4 hPa 0,0 l/m W-NW 0,00 h 0 W/m 4,9 km/h (1 Bft)
30.06.2012 00:00 22,6 C 78 % 1008,4 hPa 0,0 l/m N 0,00 h 0 W/m 1,6 km/h (1 Bft)
30.06.2012 01:00 21,4 C 82 % 1008,6 hPa 0,0 l/m N 0,00 h 0 W/m 1,9 km/h (1 Bft)
30.06.2012 02:00 21,1 C 84 % 1009,1 hPa 0,0 l/m N-NW 0,00 h 0 W/m 7,6 km/h (2 Bft)
30.06.2012 03:00 21,1 C 78 % 1009,4 hPa 0,0 l/m N-NW 0,00 h 0 W/m 6,3 km/h (2 Bft)
30.06.2012 04:00 19,9 C 80 % 1009,8 hPa 0,0 l/m N 0,00 h 0 W/m 1,3 km/h (1 Bft)
30.06.2012 05:00 19,4 C 81 % 1010,2 hPa 0,0 l/m N 0,00 h 8 W/m 1,2 km/h (1 Bft)
30.06.2012 06:00 18,7 C 88 % 1010,4 hPa 0,0 l/m N 0,00 h 41 W/m 0,4 km/h (0 Bft)
30.06.2012 07:00 20,0 C 88 % 1010,5 hPa 0,0 l/m N-NW 0,50 h 163 W/m 2,5 km/h (1 Bft)
30.06.2012 08:00 21,8 C 82 % 1010,5 hPa 0,0 l/m NO 1,00 h 325 W/m 9,7 km/h (2 Bft)
30.06.2012 09:00 23,4 C 78 % 1010,5 hPa 0,0 l/m O-NO 1,00 h 481 W/m 10,2 km/h (2 Bft)
30.06.2012 10:00 25,0 C 73 % 1010,3 hPa 0,0 l/m O-NO 1,00 h 608 W/m 13,2 km/h (3 Bft)
30.06.2012 11:00 26,7 C 67 % 1009,9 hPa 0,0 l/m O 1,00 h 744 W/m 14,9 km/h (3 Bft)
30.06.2012 12:00 28,2 C 64 % 1009,3 hPa 0,0 l/m O-SO 1,00 h 819 W/m 14,6 km/h (3 Bft)
30.06.2012 13:00 29,5 C 59 % 1008,8 hPa 0,0 l/m O-SO 1,00 h 860 W/m 17,0 km/h (3 Bft)
30.06.2012 14:00 30,4 C 55 % 1008,2 hPa 0,0 l/m O 1,00 h 824 W/m 16,1 km/h (3 Bft)
30.06.2012 15:00 31,3 C 52 % 1007,9 hPa 0,0 l/m O-SO 1,00 h 739 W/m 14,2 km/h (3 Bft)
30.06.2012 16:00 31,7 C 53 % 1007,3 hPa 0,0 l/m O 1,00 h 646 W/m 14,8 km/h (3 Bft)
30.06.2012 17:00 31,7 C 51 % 1006,9 hPa 0,0 l/m O-NO 1,00 h 508 W/m 13,0 km/h (3 Bft)
30.06.2012 18:00 31,2 C 53 % 1006,3 hPa 0,0 l/m O-NO 1,00 h 338 W/m 11,3 km/h (2 Bft)
30.06.2012 19:00 29,5 C 61 % 1005,9 hPa 0,0 l/m NO 0,17 h 62 W/m 8,3 km/h (2 Bft)
30.06.2012 20:00 21,8 C 77 % 1008,4 hPa 29,0 l/m W-NW 0,00 h 0 W/m 31,5 km/h (5 Bft)
30.06.2012 21:00 15,9 C 96 % 1007,2 hPa 0,6 l/m NO 0,00 h 0 W/m 8,0 km/h (2 Bft)
30.06.2012 22:00 16,1 C 97 % 1006,9 hPa 0,0 l/m N 0,00 h 0 W/m 1,7 km/h (1 Bft)
30.06.2012 23:00 16,0 C 98 % 1007,4 hPa 0,0 l/m N-NW 0,00 h 0 W/m 3,1 km/h (1 Bft)
01.07.2012 00:00 16,2 C 98 % 1009,9 hPa 0,0 l/m N-NW 0,00 h 0 W/m 8,8 km/h (2 Bft)
01.07.2012 01:00 17,5 C 94 % 1010,9 hPa 0,0 l/m N-NO 0,00 h 0 W/m 16,6 km/h (3 Bft)
01.07.2012 02:00 16,7 C 96 % 1010,8 hPa 0,0 l/m N-NO 0,00 h 0 W/m 2,8 km/h (1 Bft)
01.07.2012 03:00 16,5 C 97 % 1011,5 hPa 0,0 l/m NW 0,00 h 0 W/m 4,9 km/h (1 Bft)
01.07.2012 04:00 16,9 C 97 % 1011,9 hPa 0,0 l/m N-NO 0,00 h 0 W/m 4,0 km/h (1 Bft)
01.07.2012 05:00 16,9 C 97 % 1012,3 hPa 0,2 l/m N 0,00 h 5 W/m 5,3 km/h (1 Bft)
01.07.2012 06:00 17,0 C 97 % 1012,3 hPa 0,0 l/m W-NW 0,00 h 34 W/m 4,8 km/h (1 Bft)
01.07.2012 07:00 17,5 C 96 % 1011,4 hPa 0,0 l/m N-NW 0,33 h 149 W/m 3,3 km/h (1 Bft)
01.07.2012 08:00 18,8 C 91 % 1012,5 hPa 0,2 l/m N-NO 0,25 h 111 W/m 10,5 km/h (2 Bft)
01.07.2012 09:00 17,9 C 93 % 1012,8 hPa 0,0 l/m N 0,25 h 202 W/m 16,4 km/h (3 Bft)
01.07.2012 10:00 20,5 C 81 % 1012,6 hPa 0,0 l/m N-NW 0,75 h 546 W/m 15,7 km/h (3 Bft)
01.07.2012 11:00 20,9 C 78 % 1013,4 hPa 0,0 l/m N-NO 0,75 h 671 W/m 22,2 km/h (4 Bft)
01.07.2012 12:00 19,2 C 80 % 1014,1 hPa 0,0 l/m N-NO 0,00 h 120 W/m 24,0 km/h (4 Bft)
01.07.2012 13:00 16,3 C 91 % 1016,2 hPa 12,6 l/m N-NO 0,00 h 182 W/m 16,9 km/h (3 Bft)
01.07.2012 14:00 16,5 C 91 % 1015,8 hPa 0,0 l/m NO 0,00 h 62 W/m 7,6 km/h (2 Bft)
01.07.2012 15:00 16,3 C 93 % 1016,6 hPa 1,2 l/m O-SO 0,00 h 55 W/m 2,0 km/h (1 Bft)
01.07.2012 16:00 16,3 C 93 % 1016,8 hPa 0,0 l/m SO 0,00 h 61 W/m 2,5 km/h (1 Bft)
01.07.2012 17:00 15,8 C 96 % 1018,0 hPa 3,2 l/m W-SW 0,00 h 24 W/m 5,6 km/h (1 Bft)
01.07.2012 18:00 15,7 C 97 % 1018,0 hPa 3,4 l/m S-SW 0,00 h 31 W/m 5,6 km/h (1 Bft)
01.07.2012 19:00 15,5 C 97 % 1018,6 hPa 0,2 l/m SW 0,00 h 21 W/m 12,6 km/h (3 Bft)
01.07.2012 20:00 15,4 C 97 % 1019,1 hPa 0,0 l/m W-SW 0,00 h 15 W/m 10,2 km/h (2 Bft)
01.07.2012 21:00 15,2 C 97 % 1018,9 hPa 0,0 l/m W 0,00 h 6 W/m 3,3 km/h (1 Bft)
01.07.2012 22:00 14,9 C 98 % 1019,1 hPa 0,0 l/m N 0,00 h 0 W/m 2,1 km/h (1 Bft)
01.07.2012 23:00 14,4 C 98 % 1018,6 hPa 0,0 l/m N 0,00 h 0 W/m 1,1 km/h (0 Bft)
Min-Datum _ 26.06.12 29.06.12 30.06.12 - - - - 25.06.12
_ Min-Zeit 05:50 15:35 19:55 - - - - 08:05
Minimum _ 8,5 C 36 % 1005,5 hPa - - - - 0,0 km/h (0 Bft)
Max-Datum _ 29.06.12 01.07.12 26.06.12 30.06.12 - 25.06.12 25.06.12 30.06.12
_ Max-Zeit 15:35 23:40 08:15 20:35 - 10:45 14:05 20:30
Maximum _ 32,3 C 99 % 1020,6 hPa 29,0 l/m - 0,08 h 1190 W/m 83,7 km/h
W-NW (9 Bft)
Durchschnitt _ 19,8 C 77 % 1013,5 hPa #63,0 l/m W-SW #51:45 h 338 W/m 7,9 km/h (2 Bft)